Red Oak, Arkansas
Current Conditions -  °F | °C
As of 7:53 AM on Thursday 29 Jan 2015 (Local Time) from KHOT Reporting Station
Clear Clear  
Wind Chill: 52°   Ceiling: Unl
Heat Index: 52°   Visibility: 10mi
Dew Point: 45°   Wind: 3mph
Humidity: 77%   Direction: 330°NNW
Pressure: 30.1"   Gusts: NA
Location:  34.5331°N, 93.0035°W
Report Text: KHOT 291353Z AUTO 33003KT 10SM CLR 11/07 A3010 RMK AO2 SLP190 T01110072
Loading
Personal Weather Stations






























Interactive Weather Map New forecast layout! Learn more

10-Day Weather Forecast

Advertisements
Track Severe Weather on mobile